createdAt,value
2022-12-24T00:02:07.652Z,14.17
2022-12-24T00:04:35.591Z,14.22
2022-12-24T00:07:03.404Z,14.23
2022-12-24T00:09:31.439Z,14.22
2022-12-24T00:12:01.239Z,14.15
2022-12-24T00:14:29.172Z,14.19
2022-12-24T00:16:56.996Z,14.23
2022-12-24T00:19:25.402Z,14.21
2022-12-24T00:21:54.312Z,14.18
2022-12-24T00:24:22.211Z,14.18
2022-12-24T00:26:50.647Z,13.86
2022-12-24T00:29:20.718Z,13.98
2022-12-24T00:31:48.669Z,14.09
2022-12-24T00:34:17.051Z,13.93
2022-12-24T00:36:44.764Z,13.91
2022-12-24T00:39:12.721Z,13.99
2022-12-24T00:41:42.911Z,13.92
2022-12-24T00:44:12.156Z,13.84
2022-12-24T00:46:43.211Z,13.98
2022-12-24T00:49:12.746Z,13.92
2022-12-24T00:51:40.881Z,13.77
2022-12-24T00:54:09.555Z,13.86
2022-12-24T00:56:37.426Z,13.92
2022-12-24T00:59:05.552Z,13.83
2022-12-24T01:01:34.089Z,13.63
2022-12-24T01:04:17.548Z,13.90
2022-12-24T01:06:46.359Z,13.82
2022-12-24T01:09:14.301Z,13.88
2022-12-24T01:11:42.148Z,13.89
2022-12-24T01:14:10.526Z,13.89
2022-12-24T01:16:38.401Z,13.90
2022-12-24T01:19:07.751Z,13.95
2022-12-24T01:21:36.000Z,13.90
2022-12-24T01:24:03.929Z,13.96
2022-12-24T01:26:31.730Z,13.98
2022-12-24T01:29:00.421Z,13.87
2022-12-24T01:31:28.270Z,13.92
2022-12-24T01:33:56.258Z,14.02
2022-12-24T01:36:25.775Z,13.97
2022-12-24T01:38:53.539Z,13.71
2022-12-24T01:41:41.573Z,14.08
2022-12-24T01:44:33.404Z,14.11
2022-12-24T01:47:11.766Z,13.93
2022-12-24T01:49:42.978Z,14.04
2022-12-24T01:52:16.336Z,13.96
2022-12-24T01:54:51.604Z,13.80
2022-12-24T01:57:24.293Z,13.91
2022-12-24T01:59:56.215Z,13.88
2022-12-24T02:02:25.069Z,13.76
2022-12-24T02:04:59.091Z,13.87
2022-12-24T02:07:28.860Z,13.86
2022-12-24T02:09:59.584Z,13.84
2022-12-24T02:12:28.393Z,13.82
2022-12-24T02:14:56.597Z,13.79
2022-12-24T02:17:32.995Z,13.84
2022-12-24T02:20:35.029Z,13.80
2022-12-24T02:23:32.530Z,13.89
2022-12-24T02:26:15.764Z,13.87
2022-12-24T02:29:07.639Z,13.82
2022-12-24T02:31:42.977Z,13.81
2022-12-24T02:34:14.934Z,13.81
2022-12-24T02:36:48.458Z,13.77
2022-12-24T02:39:23.635Z,13.67
2022-12-24T02:42:07.358Z,13.77
2022-12-24T02:44:40.764Z,13.81
2022-12-24T02:47:12.157Z,13.84
2022-12-24T02:49:40.201Z,13.84
2022-12-24T02:52:07.957Z,13.82
2022-12-24T02:54:36.126Z,13.53
2022-12-24T02:57:18.855Z,13.66
2022-12-24T03:00:00.565Z,13.80
2022-12-24T03:02:41.505Z,13.82
2022-12-24T03:05:22.401Z,13.76
2022-12-24T03:08:04.776Z,13.80
2022-12-24T03:10:39.776Z,13.80
2022-12-24T03:13:11.667Z,13.79
2022-12-24T03:15:41.138Z,13.58
2022-12-24T03:18:13.252Z,13.74
2022-12-24T03:20:43.787Z,13.62
2022-12-24T03:23:12.439Z,13.65
2022-12-24T03:25:44.027Z,13.67
2022-12-24T03:28:15.238Z,13.70
2022-12-24T03:30:44.558Z,13.50
2022-12-24T03:33:14.836Z,13.50
2022-12-24T03:35:42.852Z,13.63
2022-12-24T03:38:11.343Z,13.76
2022-12-24T03:40:39.215Z,13.71
2022-12-24T03:43:07.371Z,13.77
2022-12-24T03:45:36.052Z,13.77
2022-12-24T03:48:04.290Z,13.74
2022-12-24T03:50:34.145Z,13.71
2022-12-24T03:53:02.019Z,13.65
2022-12-24T03:55:29.919Z,13.69
2022-12-24T03:57:57.800Z,13.61
2022-12-24T04:00:25.781Z,13.53
2022-12-24T04:02:54.840Z,13.63
2022-12-24T04:05:23.158Z,13.60
2022-12-24T04:07:52.809Z,13.58
2022-12-24T04:10:20.683Z,13.64
2022-12-24T04:12:48.565Z,13.51
2022-12-24T04:15:16.501Z,13.61
2022-12-24T04:17:44.341Z,13.57
2022-12-24T04:20:13.598Z,13.61
2022-12-24T04:22:42.306Z,13.57
2022-12-24T04:25:12.652Z,13.70
2022-12-24T04:27:40.473Z,13.63
2022-12-24T04:30:09.754Z,13.52
2022-12-24T04:32:38.186Z,13.62
2022-12-24T04:35:06.739Z,13.61
2022-12-24T04:37:35.418Z,13.47
2022-12-24T04:40:03.384Z,13.64
2022-12-24T04:42:32.645Z,13.54
2022-12-24T04:45:00.655Z,13.64
2022-12-24T04:47:28.597Z,13.67
2022-12-24T04:49:56.523Z,13.62
2022-12-24T04:52:24.745Z,13.72
2022-12-24T04:54:52.570Z,13.73
2022-12-24T04:57:20.717Z,13.71
2022-12-24T04:59:50.322Z,13.42
2022-12-24T05:02:18.488Z,13.50
2022-12-24T05:04:46.503Z,13.51
2022-12-24T05:07:14.751Z,13.55
2022-12-24T05:09:42.504Z,13.57
2022-12-24T05:12:10.427Z,13.42
2022-12-24T05:14:38.875Z,13.19
2022-12-24T05:17:08.186Z,13.20
2022-12-24T05:19:36.085Z,13.58
2022-12-24T05:22:21.593Z,13.38
2022-12-24T05:25:07.028Z,13.54
2022-12-24T05:27:34.936Z,13.55
2022-12-24T05:30:02.837Z,13.57
2022-12-24T05:32:32.741Z,13.42
2022-12-24T05:35:00.550Z,13.25
2022-12-24T05:37:28.418Z,13.49
2022-12-24T05:39:56.305Z,13.43
2022-12-24T05:42:24.208Z,13.27
2022-12-24T05:44:52.344Z,13.45
2022-12-24T05:47:20.296Z,13.44
2022-12-24T05:49:49.578Z,13.32
2022-12-24T05:52:17.714Z,13.45
2022-12-24T05:54:45.509Z,13.40
2022-12-24T05:57:13.993Z,13.37
2022-12-24T05:59:41.820Z,13.37
2022-12-24T06:02:10.856Z,13.32
2022-12-24T06:04:39.080Z,13.42
2022-12-24T06:07:08.427Z,13.43
2022-12-24T06:09:36.803Z,13.46
2022-12-24T06:12:04.908Z,13.44
2022-12-24T06:14:32.918Z,13.44
2022-12-24T06:17:02.281Z,13.13
2022-12-24T06:19:30.080Z,13.35
2022-12-24T06:21:57.918Z,13.27
2022-12-24T06:24:27.422Z,13.56
2022-12-24T06:26:55.273Z,13.57
2022-12-24T06:29:23.101Z,13.55
2022-12-24T06:31:51.266Z,13.24
2022-12-24T06:34:19.354Z,13.54
2022-12-24T06:36:47.292Z,13.46
2022-12-24T06:39:15.602Z,13.51
2022-12-24T06:41:45.081Z,13.37
2022-12-24T06:44:12.954Z,13.39
2022-12-24T06:46:40.982Z,13.51
2022-12-24T06:49:09.417Z,13.51
2022-12-24T06:51:37.717Z,13.41
2022-12-24T06:54:05.693Z,13.50
2022-12-24T06:56:33.455Z,13.50
2022-12-24T06:59:05.551Z,13.44
2022-12-24T07:01:33.857Z,13.46
2022-12-24T07:04:01.904Z,13.29
2022-12-24T07:06:31.142Z,13.50
2022-12-24T07:08:59.212Z,13.51
2022-12-24T07:11:28.040Z,13.48
2022-12-24T07:13:55.974Z,13.19
2022-12-24T07:16:25.753Z,13.38
2022-12-24T07:18:53.728Z,13.43
2022-12-24T07:21:21.471Z,13.45
2022-12-24T07:23:49.755Z,13.33
2022-12-24T07:26:17.621Z,13.41
2022-12-24T07:28:45.386Z,13.15
2022-12-24T07:31:13.639Z,13.36
2022-12-24T07:33:43.050Z,13.46
2022-12-24T07:36:16.339Z,13.47
2022-12-24T07:38:44.139Z,13.51
2022-12-24T07:41:12.227Z,13.51
2022-12-24T07:43:40.701Z,13.39
2022-12-24T07:46:08.542Z,13.52
2022-12-24T07:48:36.647Z,13.54
2022-12-24T07:51:06.987Z,13.55
2022-12-24T07:53:35.182Z,13.40
2022-12-24T07:56:07.555Z,13.59
2022-12-24T07:58:38.619Z,13.62
2022-12-24T08:01:06.686Z,13.35
2022-12-24T08:03:34.766Z,13.62
2022-12-24T08:06:03.199Z,13.59
2022-12-24T08:08:32.486Z,13.50
2022-12-24T08:11:04.224Z,13.43
2022-12-24T08:13:32.753Z,13.54
2022-12-24T08:16:00.900Z,13.51
2022-12-24T08:18:28.952Z,13.51
2022-12-24T08:20:56.894Z,13.40
2022-12-24T08:23:24.737Z,13.59
2022-12-24T08:25:54.859Z,13.63
2022-12-24T08:28:22.638Z,13.62
2022-12-24T08:30:51.671Z,13.55
2022-12-24T08:33:20.915Z,13.64
2022-12-24T08:35:50.243Z,13.66
2022-12-24T08:38:18.591Z,13.67
2022-12-24T08:40:49.415Z,13.66
2022-12-24T08:43:19.381Z,13.62
2022-12-24T08:45:49.859Z,13.64
2022-12-24T08:48:17.909Z,13.67
2022-12-24T08:50:46.460Z,13.46
2022-12-24T08:53:14.539Z,13.55
2022-12-24T08:55:42.541Z,13.71
2022-12-24T08:58:10.538Z,13.41
2022-12-24T09:00:40.415Z,13.45
2022-12-24T09:03:08.580Z,13.72
2022-12-24T09:05:41.403Z,13.71
2022-12-24T09:08:09.302Z,13.77
2022-12-24T09:10:37.178Z,13.76
2022-12-24T09:13:05.323Z,13.55
2022-12-24T09:15:33.345Z,13.81
2022-12-24T09:18:02.954Z,13.84
2022-12-24T09:20:31.509Z,13.82
2022-12-24T09:22:59.351Z,13.70
2022-12-24T09:25:28.261Z,13.85
2022-12-24T09:27:57.886Z,13.84
2022-12-24T09:30:25.835Z,13.83
2022-12-24T09:32:53.735Z,13.97
2022-12-24T09:35:23.679Z,13.79
2022-12-24T09:38:02.837Z,13.85
2022-12-24T09:40:37.545Z,13.83
2022-12-24T09:43:12.924Z,13.62
2022-12-24T09:45:43.475Z,14.02
2022-12-24T09:48:17.290Z,13.76
2022-12-24T09:50:53.648Z,13.83
2022-12-24T09:53:25.130Z,13.77
2022-12-24T09:55:57.620Z,14.09
2022-12-24T09:58:29.646Z,13.77
2022-12-24T10:00:58.595Z,14.01
2022-12-24T10:03:27.185Z,14.08
2022-12-24T10:06:08.100Z,14.08
2022-12-24T10:08:45.093Z,14.03
2022-12-24T10:11:20.431Z,14.05
2022-12-24T10:13:55.999Z,14.14
2022-12-24T10:16:30.816Z,14.19
2022-12-24T10:19:12.000Z,14.17
2022-12-24T10:21:52.728Z,14.19
2022-12-24T10:24:26.361Z,14.09
2022-12-24T10:27:00.511Z,14.22
2022-12-24T10:29:31.247Z,14.21
2022-12-24T10:32:07.027Z,14.21
2022-12-24T10:34:39.777Z,14.21
2022-12-24T10:37:16.251Z,14.23
2022-12-24T10:39:44.539Z,14.17
2022-12-24T10:42:14.583Z,14.05
2022-12-24T10:44:43.106Z,14.29
2022-12-24T10:47:12.354Z,14.07
2022-12-24T10:49:47.661Z,14.28
2022-12-24T10:52:22.743Z,14.23
2022-12-24T10:55:09.802Z,14.35
2022-12-24T10:57:39.147Z,14.40
2022-12-24T11:00:10.946Z,14.44
2022-12-24T11:02:40.167Z,14.44
2022-12-24T11:05:28.784Z,14.43
2022-12-24T11:08:02.796Z,14.45
2022-12-24T11:10:31.090Z,14.41
2022-12-24T11:13:35.105Z,14.42
2022-12-24T11:15:47.651Z,14.45
2022-12-24T11:18:16.841Z,14.58
2022-12-24T11:20:52.869Z,14.61
2022-12-24T11:23:23.872Z,14.49
2022-12-24T11:25:53.809Z,14.66
2022-12-24T11:28:24.895Z,14.67
2022-12-24T11:30:59.555Z,14.71
2022-12-24T11:33:28.110Z,14.70
2022-12-24T11:36:02.272Z,14.58
2022-12-24T11:38:33.991Z,14.66
2022-12-24T11:41:06.130Z,14.65
2022-12-24T11:43:47.221Z,14.56
2022-12-24T11:46:38.924Z,14.50
2022-12-24T11:49:15.331Z,14.60
2022-12-24T11:52:02.713Z,14.62
2022-12-24T11:54:38.143Z,14.56
2022-12-24T11:57:07.644Z,14.76
2022-12-24T11:59:39.689Z,14.53
2022-12-24T12:02:20.693Z,14.64
2022-12-24T12:04:53.046Z,14.86
2022-12-24T12:07:26.801Z,14.88
2022-12-24T12:10:01.734Z,14.94
2022-12-24T12:12:32.898Z,14.98
2022-12-24T12:15:05.123Z,14.98
2022-12-24T12:17:36.553Z,14.74
2022-12-24T12:20:12.011Z,14.97
2022-12-24T12:22:47.059Z,14.99
2022-12-24T12:25:23.864Z,14.92
2022-12-24T12:27:55.118Z,14.90
2022-12-24T12:30:24.429Z,14.78
2022-12-24T12:32:58.336Z,14.92
2022-12-24T12:35:29.646Z,14.75
2022-12-24T12:38:02.331Z,14.72
2022-12-24T12:40:56.484Z,14.97
2022-12-24T12:43:40.483Z,15.06
2022-12-24T12:46:17.944Z,14.93
2022-12-24T12:49:02.824Z,14.88
2022-12-24T12:51:40.007Z,15.08
2022-12-24T12:54:25.246Z,14.93
2022-12-24T12:56:57.520Z,15.06
2022-12-24T12:59:34.165Z,14.71
2022-12-24T13:02:15.441Z,15.06
2022-12-24T13:05:02.661Z,14.89
2022-12-24T13:07:52.705Z,15.16
2022-12-24T13:10:54.550Z,15.19
2022-12-24T13:13:46.603Z,15.02
2022-12-24T13:16:54.258Z,14.88
2022-12-24T13:19:38.263Z,15.21
2022-12-24T13:22:07.107Z,14.97
2022-12-24T13:24:36.084Z,15.02
2022-12-24T13:27:07.407Z,15.17
2022-12-24T13:29:52.042Z,15.06
2022-12-24T13:32:50.958Z,15.15
2022-12-24T13:35:38.304Z,15.24
2022-12-24T13:38:43.803Z,15.26
2022-12-24T13:41:50.152Z,15.28
2022-12-24T13:44:24.371Z,14.98
2022-12-24T13:47:00.006Z,15.21
2022-12-24T13:49:32.596Z,15.32
2022-12-24T13:52:19.277Z,15.31
2022-12-24T13:55:01.973Z,15.30
2022-12-24T13:57:38.245Z,15.23
2022-12-24T14:00:10.584Z,15.30
2022-12-24T14:02:47.673Z,15.08
2022-12-24T14:05:22.068Z,15.11
2022-12-24T14:07:51.305Z,15.16
2022-12-24T14:10:26.545Z,15.26
2022-12-24T14:12:54.896Z,15.13
2022-12-24T14:16:02.225Z,15.23
2022-12-24T14:18:35.283Z,15.20
2022-12-24T14:21:04.281Z,15.11
2022-12-24T14:23:38.653Z,15.17
2022-12-24T14:26:15.684Z,15.12
2022-12-24T14:28:48.198Z,14.99
2022-12-24T14:31:19.193Z,15.10
2022-12-24T14:33:48.582Z,15.03
2022-12-24T14:36:23.436Z,14.97
2022-12-24T14:38:51.685Z,15.15
2022-12-24T14:41:31.561Z,15.06
2022-12-24T14:44:09.462Z,15.21
2022-12-24T14:46:45.405Z,15.21
2022-12-24T14:49:25.267Z,15.03
2022-12-24T14:52:04.755Z,15.22
2022-12-24T14:54:39.933Z,15.15
2022-12-24T14:57:17.685Z,15.26
2022-12-24T14:59:48.380Z,15.26
2022-12-24T15:02:26.478Z,15.24
2022-12-24T15:05:11.738Z,15.17
2022-12-24T15:07:47.474Z,15.17
2022-12-24T15:10:26.650Z,15.12
2022-12-24T15:12:57.697Z,15.17
2022-12-24T15:15:25.673Z,15.14
2022-12-24T15:17:53.971Z,15.26
2022-12-24T15:20:26.364Z,15.22
2022-12-24T15:22:57.456Z,15.25
2022-12-24T15:25:28.591Z,15.21
2022-12-24T15:27:57.004Z,14.96
2022-12-24T15:30:26.483Z,14.87
2022-12-24T15:32:56.474Z,15.13
2022-12-24T15:35:45.544Z,15.22
2022-12-24T15:38:28.592Z,15.20
2022-12-24T15:40:58.965Z,15.08
2022-12-24T15:43:28.320Z,15.09
2022-12-24T15:45:56.532Z,15.09
2022-12-24T15:48:27.097Z,15.11
2022-12-24T15:50:59.502Z,15.05
2022-12-24T15:53:31.353Z,15.13
2022-12-24T15:56:06.381Z,14.91
2022-12-24T15:58:36.291Z,14.92
2022-12-24T16:09:46.635Z,14.93
2022-12-24T16:12:18.164Z,14.92
2022-12-24T16:14:53.425Z,14.95
2022-12-24T16:17:24.438Z,14.54
2022-12-24T16:19:55.476Z,14.76
2022-12-24T16:22:35.379Z,14.87
2022-12-24T16:25:17.722Z,14.86
2022-12-24T16:27:47.004Z,14.92
2022-12-24T16:30:15.089Z,14.50
2022-12-24T16:32:44.111Z,14.81
2022-12-24T16:35:24.367Z,14.89
2022-12-24T16:37:54.725Z,14.71
2022-12-24T16:40:32.504Z,14.65
2022-12-24T16:43:18.902Z,14.64
2022-12-24T16:45:48.481Z,14.77
2022-12-24T16:48:28.391Z,14.88
2022-12-24T16:50:56.720Z,14.88
2022-12-24T16:53:26.107Z,14.73
2022-12-24T16:55:53.956Z,14.83
2022-12-24T16:58:22.776Z,14.68
2022-12-24T17:00:51.166Z,14.69
2022-12-24T17:03:19.368Z,14.52
2022-12-24T17:05:47.529Z,14.49
2022-12-24T17:08:15.592Z,14.35
2022-12-24T17:10:52.312Z,14.68
2022-12-24T17:13:22.494Z,14.53
2022-12-24T17:15:50.626Z,14.65
2022-12-24T17:18:18.881Z,14.57
2022-12-24T17:20:47.395Z,14.43
2022-12-24T17:23:15.249Z,14.20
2022-12-24T17:25:44.559Z,14.28
2022-12-24T17:28:13.314Z,14.43
2022-12-24T17:30:41.804Z,14.49
2022-12-24T17:33:14.568Z,14.37
2022-12-24T17:35:44.239Z,14.39
2022-12-24T17:38:12.317Z,14.33
2022-12-24T17:40:42.672Z,14.37
2022-12-24T17:43:12.888Z,14.30
2022-12-24T17:45:42.331Z,14.20
2022-12-24T17:48:10.306Z,14.31
2022-12-24T17:50:40.782Z,14.29
2022-12-24T17:53:11.756Z,14.27
2022-12-24T17:55:43.427Z,14.25
2022-12-24T17:58:15.138Z,14.10
2022-12-24T18:00:43.739Z,13.80
2022-12-24T18:03:14.703Z,14.09
2022-12-24T18:05:42.803Z,14.15
2022-12-24T18:08:11.311Z,14.07
2022-12-24T18:10:39.189Z,14.20
2022-12-24T18:13:07.946Z,14.10
2022-12-24T18:15:40.248Z,14.15
2022-12-24T18:18:09.313Z,14.15
2022-12-24T18:20:44.389Z,14.16
2022-12-24T18:23:14.948Z,14.00
2022-12-24T18:25:42.789Z,14.15
2022-12-24T18:28:11.185Z,13.94
2022-12-24T18:30:42.522Z,14.10
2022-12-24T18:33:10.478Z,13.83
2022-12-24T18:35:38.267Z,14.08
2022-12-24T18:38:06.504Z,14.08
2022-12-24T18:40:37.871Z,14.08
2022-12-24T18:43:05.723Z,14.06
2022-12-24T18:45:34.202Z,14.06
2022-12-24T18:48:03.562Z,13.84
2022-12-24T18:50:31.327Z,13.77
2022-12-24T18:52:59.280Z,13.73
2022-12-24T18:55:27.526Z,13.94
2022-12-24T18:57:55.458Z,13.81
2022-12-24T19:00:24.501Z,14.05
2022-12-24T19:02:52.464Z,14.05
2022-12-24T19:05:21.999Z,13.95
2022-12-24T19:07:50.502Z,14.03
2022-12-24T19:10:18.439Z,14.02
2022-12-24T19:12:46.402Z,13.90
2022-12-24T19:15:15.524Z,13.80
2022-12-24T19:17:44.060Z,13.85
2022-12-24T19:20:12.708Z,13.94
2022-12-24T19:22:42.720Z,13.88
2022-12-24T19:25:10.839Z,13.88
2022-12-24T19:27:38.744Z,13.91
2022-12-24T19:30:08.403Z,13.95
2022-12-24T19:32:36.244Z,13.95
2022-12-24T19:35:04.062Z,13.66
2022-12-24T19:37:32.473Z,13.93
2022-12-24T19:40:01.767Z,13.89
2022-12-24T19:42:30.732Z,13.63
2022-12-24T19:44:58.990Z,14.00
2022-12-24T19:47:26.874Z,13.85
2022-12-24T19:49:54.891Z,14.00
2022-12-24T19:52:30.008Z,14.00
2022-12-24T19:54:57.931Z,13.96
2022-12-24T19:57:28.047Z,13.91
2022-12-24T19:59:56.060Z,14.00
2022-12-24T20:02:24.386Z,13.97
2022-12-24T20:04:53.151Z,13.96
2022-12-24T20:07:20.907Z,13.98
2022-12-24T20:09:48.743Z,13.96
2022-12-24T20:12:16.979Z,13.82
2022-12-24T20:14:46.437Z,13.98
2022-12-24T20:17:15.106Z,13.99
2022-12-24T20:19:43.440Z,13.99
2022-12-24T20:22:12.325Z,13.97
2022-12-24T20:24:40.437Z,13.98
2022-12-24T20:27:08.833Z,13.83
2022-12-24T20:29:36.827Z,13.87
2022-12-24T20:32:07.012Z,13.93
2022-12-24T20:34:35.542Z,13.79
2022-12-24T20:37:04.274Z,13.82
2022-12-24T20:39:32.149Z,13.94
2022-12-24T20:42:01.477Z,13.92
2022-12-24T20:44:29.385Z,13.81
2022-12-24T20:46:57.276Z,13.60
2022-12-24T20:49:26.765Z,13.73
2022-12-24T20:51:54.699Z,13.98
2022-12-24T20:54:22.448Z,13.90
2022-12-24T20:56:57.886Z,13.98
2022-12-24T20:59:26.885Z,13.91
2022-12-24T21:01:55.471Z,13.82
2022-12-24T21:04:23.513Z,14.04
2022-12-24T21:06:52.846Z,13.90
2022-12-24T21:09:20.988Z,13.98
2022-12-24T21:12:11.670Z,13.89
2022-12-24T21:14:40.145Z,14.06
2022-12-24T21:17:13.601Z,13.99
2022-12-24T21:19:43.779Z,14.11
2022-12-24T21:22:13.196Z,14.08
2022-12-24T21:24:41.244Z,14.06
2022-12-24T21:27:09.732Z,14.09
2022-12-24T21:29:37.673Z,14.06
2022-12-24T21:32:05.723Z,13.95
2022-12-24T21:34:33.984Z,13.78
2022-12-24T21:37:01.914Z,14.00
2022-12-24T21:39:31.381Z,13.97
2022-12-24T21:41:59.891Z,13.66
2022-12-24T21:44:27.595Z,13.70
2022-12-24T21:46:55.549Z,13.90
2022-12-24T21:49:41.117Z,13.82
2022-12-24T21:52:08.891Z,14.03
2022-12-24T21:54:37.119Z,13.97
2022-12-24T21:57:26.176Z,14.07
2022-12-24T21:59:56.980Z,14.05
2022-12-24T22:02:28.480Z,14.03
2022-12-24T22:04:56.520Z,14.05
2022-12-24T22:07:44.735Z,13.95
2022-12-24T22:10:33.054Z,13.93
2022-12-24T22:13:03.783Z,14.03
2022-12-24T22:15:31.863Z,14.00
2022-12-24T22:17:59.765Z,13.73
2022-12-24T22:20:28.306Z,13.88
2022-12-24T22:22:56.145Z,13.99
2022-12-24T22:25:25.357Z,13.83
2022-12-24T22:27:53.750Z,13.95
2022-12-24T22:30:21.828Z,13.73
2022-12-24T22:32:49.675Z,13.84
2022-12-24T22:35:18.911Z,13.67
2022-12-24T22:37:47.363Z,14.00
2022-12-24T22:40:15.523Z,14.03
2022-12-24T22:42:45.495Z,13.98
2022-12-24T22:45:20.005Z,13.88
2022-12-24T22:47:50.600Z,14.04
2022-12-24T22:50:18.478Z,14.04
2022-12-24T22:52:46.609Z,14.05
2022-12-24T22:55:15.180Z,13.79
2022-12-24T22:57:44.562Z,14.07
2022-12-24T23:00:17.714Z,14.09
2022-12-24T23:02:45.599Z,14.07
2022-12-24T23:05:16.329Z,14.01
2022-12-24T23:07:44.268Z,13.89
2022-12-24T23:10:12.210Z,13.82
2022-12-24T23:12:57.747Z,14.08
2022-12-24T23:15:26.967Z,14.08
2022-12-24T23:17:56.170Z,13.88
2022-12-24T23:20:24.395Z,14.06
2022-12-24T23:22:52.139Z,14.04
2022-12-24T23:25:20.472Z,14.04
2022-12-24T23:27:48.784Z,13.87
2022-12-24T23:30:17.220Z,13.99
2022-12-24T23:32:48.176Z,13.93
2022-12-24T23:35:16.637Z,13.93
2022-12-24T23:37:44.663Z,13.88
2022-12-24T23:40:12.945Z,13.97
2022-12-24T23:42:41.611Z,13.95
2022-12-24T23:45:10.340Z,13.96
2022-12-24T23:47:38.203Z,13.92
2022-12-24T23:50:10.748Z,14.05
2022-12-24T23:52:38.512Z,14.04
2022-12-24T23:55:07.317Z,13.71
2022-12-24T23:57:35.337Z,13.92
